createdAt,value
2019-03-08T00:00:06.933Z,51.70
2019-03-08T00:03:11.859Z,52.27
2019-03-08T00:06:16.396Z,49.97
2019-03-08T00:09:21.617Z,52.50
2019-03-08T00:12:26.367Z,53.80
2019-03-08T00:15:31.063Z,53.70
2019-03-08T00:18:35.824Z,54.60
2019-03-08T00:21:40.434Z,54.53
2019-03-08T00:24:45.371Z,57.33
2019-03-08T00:27:50.222Z,53.60
2019-03-08T00:30:55.138Z,56.50
2019-03-08T00:33:59.861Z,55.60
2019-03-08T00:37:06.064Z,55.03
2019-03-08T00:40:10.967Z,58.53
2019-03-08T00:43:15.799Z,54.77
2019-03-08T00:46:20.630Z,53.10
2019-03-08T00:49:25.455Z,56.13
2019-03-08T00:52:30.289Z,56.47
2019-03-08T00:55:35.039Z,57.40
2019-03-08T00:58:41.628Z,57.80
2019-03-08T01:01:46.530Z,56.63
2019-03-08T01:04:51.369Z,55.73
2019-03-08T01:07:56.297Z,56.17
2019-03-08T01:11:00.796Z,56.93
2019-03-08T01:14:05.544Z,54.70
2019-03-08T01:17:10.304Z,57.10
2019-03-08T01:20:15.895Z,58.00
2019-03-08T01:23:20.775Z,54.93
2019-03-08T01:26:25.346Z,54.50
2019-03-08T01:29:29.994Z,54.97
2019-03-08T01:32:34.821Z,54.77
2019-03-08T01:35:39.656Z,55.67
2019-03-08T01:38:44.672Z,54.13
2019-03-08T01:41:49.317Z,53.47
2019-03-08T01:44:54.156Z,52.13
2019-03-08T01:47:58.853Z,52.03
2019-03-08T01:51:05.281Z,50.73
2019-03-08T01:54:10.056Z,51.77
2019-03-08T01:57:14.811Z,50.33
2019-03-08T02:00:19.912Z,49.53
2019-03-08T02:03:24.778Z,49.37
2019-03-08T02:06:29.490Z,49.10
2019-03-08T02:09:34.209Z,48.10
2019-03-08T02:12:39.078Z,47.37
2019-03-08T02:15:43.756Z,44.83
2019-03-08T02:18:48.533Z,47.40
2019-03-08T02:21:53.524Z,45.77
2019-03-08T02:24:58.263Z,45.87
2019-03-08T02:28:02.982Z,45.93
2019-03-08T02:31:07.816Z,44.47
2019-03-08T02:34:12.647Z,43.33
2019-03-08T02:37:17.484Z,43.50
2019-03-08T02:40:47.094Z,44.87
2019-03-08T02:43:51.912Z,44.30
2019-03-08T02:46:56.564Z,42.80
2019-03-08T02:50:01.363Z,41.57
2019-03-08T02:53:05.988Z,42.73
2019-03-08T02:56:10.923Z,41.13
2019-03-08T02:59:15.775Z,40.63
2019-03-08T03:02:21.725Z,40.23
2019-03-08T03:05:26.452Z,40.07
2019-03-08T03:08:31.243Z,39.93
2019-03-08T03:11:38.016Z,39.23
2019-03-08T03:14:42.878Z,38.10
2019-03-08T03:17:47.916Z,37.30
2019-03-08T03:20:52.428Z,37.23
2019-03-08T03:23:57.147Z,36.73
2019-03-08T03:27:01.980Z,37.00
2019-03-08T03:30:06.809Z,36.90
2019-03-08T03:33:11.662Z,35.37
2019-03-08T03:36:16.431Z,36.73
2019-03-08T03:39:21.125Z,36.33
2019-03-08T03:42:25.856Z,35.97
2019-03-08T03:45:30.662Z,35.20
2019-03-08T03:48:35.611Z,36.03
2019-03-08T03:51:40.119Z,34.63
2019-03-08T03:54:44.862Z,34.53
2019-03-08T03:57:49.886Z,35.60
2019-03-08T04:00:56.206Z,34.53
2019-03-08T04:04:01.130Z,33.23
2019-03-08T04:07:06.008Z,33.67
2019-03-08T04:10:11.667Z,31.70
2019-03-08T04:13:16.386Z,31.80
2019-03-08T04:16:21.130Z,27.67
2019-03-08T04:19:25.848Z,30.80
2019-03-08T04:22:33.093Z,26.50
2019-03-08T04:25:37.560Z,21.77
2019-03-08T04:28:42.700Z,18.90
2019-03-08T04:31:47.563Z,19.93
2019-03-08T04:34:52.250Z,22.73
2019-03-08T04:37:56.800Z,20.07
2019-03-08T04:41:02.286Z,20.17
2019-03-08T04:44:07.056Z,20.07
2019-03-08T04:47:11.864Z,21.27
2019-03-08T04:50:16.625Z,22.60
2019-03-08T04:53:21.446Z,18.10
2019-03-08T04:56:26.195Z,17.63
2019-03-08T04:59:31.318Z,19.53
2019-03-08T05:02:36.132Z,20.03
2019-03-08T05:05:40.874Z,23.77
2019-03-08T05:08:45.870Z,24.13
2019-03-08T05:11:50.670Z,20.87
2019-03-08T05:14:55.563Z,24.30
2019-03-08T05:18:00.235Z,21.33
2019-03-08T05:21:04.629Z,22.90
2019-03-08T05:24:09.576Z,24.00
2019-03-08T05:27:14.169Z,23.50
2019-03-08T05:30:18.558Z,21.97
2019-03-08T05:33:23.097Z,23.23
2019-03-08T05:36:27.757Z,25.50
2019-03-08T05:39:32.669Z,26.13
2019-03-08T05:42:37.283Z,27.37
2019-03-08T05:45:42.272Z,24.17
2019-03-08T05:48:47.056Z,23.37
2019-03-08T05:51:51.900Z,24.07
2019-03-08T05:54:56.708Z,28.73
2019-03-08T05:58:01.456Z,24.13
2019-03-08T06:01:06.285Z,24.70
2019-03-08T06:04:11.126Z,24.70
2019-03-08T06:07:16.956Z,24.20
2019-03-08T06:10:32.236Z,24.50
2019-03-08T06:13:37.116Z,25.10
2019-03-08T06:16:41.808Z,28.50
2019-03-08T06:19:46.609Z,26.60
2019-03-08T06:22:51.452Z,28.07
2019-03-08T06:25:56.292Z,27.87
2019-03-08T06:29:00.997Z,29.13
2019-03-08T06:32:05.755Z,33.63
2019-03-08T06:35:10.567Z,35.67
2019-03-08T06:38:16.271Z,40.37
2019-03-08T06:41:20.941Z,40.17
2019-03-08T06:44:25.573Z,45.27
2019-03-08T06:47:32.137Z,46.60
2019-03-08T06:50:37.299Z,47.97
2019-03-08T06:53:42.010Z,51.40
2019-03-08T06:56:46.897Z,53.47
2019-03-08T07:00:07.805Z,55.93
2019-03-08T07:03:12.453Z,53.97
2019-03-08T07:06:17.096Z,58.03
2019-03-08T07:09:21.792Z,58.60
2019-03-08T07:12:26.765Z,57.60
2019-03-08T07:15:31.494Z,57.13
2019-03-08T07:18:36.309Z,55.70
2019-03-08T07:22:00.111Z,57.90
2019-03-08T07:25:23.623Z,56.07
2019-03-08T07:28:57.509Z,56.77
2019-03-08T07:32:15.175Z,55.40
2019-03-08T07:35:51.827Z,55.43
2019-03-08T07:39:14.381Z,57.63
2019-03-08T07:42:40.582Z,54.77
2019-03-08T07:46:12.759Z,54.83
2019-03-08T07:49:36.458Z,56.07
2019-03-08T07:53:03.222Z,57.23
2019-03-08T07:56:33.007Z,56.33
2019-03-08T07:59:54.240Z,54.80
2019-03-08T08:03:23.668Z,55.63
2019-03-08T08:06:37.512Z,55.40
2019-03-08T08:09:59.997Z,56.40
2019-03-08T08:13:29.454Z,53.47
2019-03-08T08:16:55.884Z,52.27
2019-03-08T08:20:19.454Z,52.23
2019-03-08T08:23:34.747Z,53.53
2019-03-08T08:27:04.067Z,51.60
2019-03-08T08:30:29.700Z,49.93
2019-03-08T08:33:56.513Z,49.30
2019-03-08T08:37:20.508Z,49.80
2019-03-08T08:40:37.979Z,50.03
2019-03-08T08:44:10.983Z,47.23
2019-03-08T08:47:37.551Z,49.47
2019-03-08T08:50:53.531Z,49.43
2019-03-08T08:54:09.343Z,47.13
2019-03-08T08:57:35.780Z,46.23
2019-03-08T09:00:58.217Z,46.63
2019-03-08T09:04:27.987Z,46.30
2019-03-08T09:07:47.010Z,46.63
2019-03-08T09:11:13.629Z,45.67
2019-03-08T09:14:24.706Z,45.90
2019-03-08T09:17:53.623Z,45.33
2019-03-08T09:21:15.089Z,45.60
2019-03-08T09:24:57.028Z,47.03
2019-03-08T09:28:23.427Z,45.17
2019-03-08T09:31:34.031Z,44.27
2019-03-08T09:34:55.689Z,45.40
2019-03-08T09:38:17.589Z,44.27
2019-03-08T09:41:34.952Z,43.20
2019-03-08T09:44:58.400Z,45.60
2019-03-08T09:48:15.130Z,43.87
2019-03-08T09:51:27.800Z,45.70
2019-03-08T09:54:54.272Z,46.70
2019-03-08T09:58:07.158Z,52.60
2019-03-08T10:01:18.042Z,49.63
2019-03-08T10:04:40.468Z,54.20
2019-03-08T10:07:58.207Z,52.37
2019-03-08T10:11:09.101Z,54.13
2019-03-08T10:14:44.669Z,54.80
2019-03-08T10:18:19.013Z,58.30
2019-03-08T10:21:40.414Z,61.87
2019-03-08T10:25:01.457Z,57.37
2019-03-08T10:28:25.158Z,57.17
2019-03-08T10:31:34.624Z,59.73
2019-03-08T10:34:58.355Z,64.00
2019-03-08T10:38:10.345Z,62.83
2019-03-08T10:41:27.596Z,63.33
2019-03-08T10:45:00.458Z,62.17
2019-03-08T10:48:24.231Z,61.10
2019-03-08T10:51:47.757Z,59.93
2019-03-08T10:55:03.760Z,61.13
2019-03-08T10:58:30.260Z,65.70
2019-03-08T11:01:44.845Z,66.27
2019-03-08T11:04:58.709Z,67.03
2019-03-08T11:08:31.312Z,67.20
2019-03-08T11:12:13.089Z,67.30
2019-03-08T11:15:35.328Z,67.10
2019-03-08T11:18:52.181Z,67.93
2019-03-08T11:22:19.515Z,66.80
2019-03-08T11:25:52.218Z,68.13
2019-03-08T11:29:14.824Z,68.63
2019-03-08T11:32:36.085Z,66.50
2019-03-08T11:35:58.555Z,72.67
2019-03-08T11:39:20.842Z,83.53
2019-03-08T11:42:50.384Z,84.67
2019-03-08T11:46:13.914Z,91.47
2019-03-08T11:49:29.213Z,94.17
2019-03-08T11:52:55.556Z,104.43
2019-03-08T11:56:17.690Z,102.73
2019-03-08T11:59:53.248Z,106.40
2019-03-08T12:03:16.962Z,109.43
2019-03-08T12:06:52.629Z,108.07
2019-03-08T12:10:22.284Z,111.30
2019-03-08T12:13:45.966Z,110.27
2019-03-08T12:17:18.700Z,112.20
2019-03-08T12:20:28.257Z,113.10
2019-03-08T12:23:57.676Z,115.03
2019-03-08T12:27:13.489Z,113.30
2019-03-08T12:30:37.167Z,114.80
2019-03-08T12:33:59.519Z,104.57
2019-03-08T12:37:10.229Z,106.30
2019-03-08T12:40:33.926Z,110.07
2019-03-08T12:43:52.091Z,111.07
2019-03-08T12:47:15.843Z,106.53
2019-03-08T12:50:28.855Z,106.60
2019-03-08T12:53:52.497Z,107.73
2019-03-08T12:57:19.385Z,104.47
2019-03-08T13:00:41.661Z,103.40
2019-03-08T13:04:14.629Z,98.57
2019-03-08T13:07:41.145Z,101.80
2019-03-08T13:10:45.883Z,98.87
2019-03-08T13:13:50.776Z,100.50
2019-03-08T13:16:55.709Z,96.07
2019-03-08T13:20:00.345Z,96.60
2019-03-08T13:23:05.078Z,95.57
2019-03-08T13:26:09.993Z,93.50
2019-03-08T13:29:14.930Z,89.70
2019-03-08T13:32:19.660Z,93.03
2019-03-08T13:35:26.350Z,92.10
2019-03-08T13:38:30.689Z,93.67
2019-03-08T13:41:35.381Z,95.93
2019-03-08T13:44:40.244Z,93.53
2019-03-08T13:47:44.968Z,95.57
2019-03-08T13:50:51.347Z,90.10
2019-03-08T13:53:56.125Z,87.30
2019-03-08T13:57:00.859Z,87.37
2019-03-08T14:00:05.681Z,87.50
2019-03-08T14:03:10.640Z,80.43
2019-03-08T14:06:15.377Z,81.23
2019-03-08T14:09:20.265Z,81.47
2019-03-08T14:12:25.042Z,81.57
2019-03-08T14:15:29.729Z,78.63
2019-03-08T14:18:34.597Z,80.30
2019-03-08T14:21:39.753Z,77.77
2019-03-08T14:24:46.041Z,80.97
2019-03-08T14:27:50.908Z,67.33
2019-03-08T14:31:14.619Z,63.20
2019-03-08T14:34:19.405Z,69.03
2019-03-08T14:37:24.200Z,71.40
2019-03-08T14:40:49.282Z,74.87
2019-03-08T14:44:10.364Z,75.67
2019-03-08T14:47:34.384Z,75.13
2019-03-08T14:50:39.225Z,75.00
2019-03-08T14:53:43.928Z,79.33
2019-03-08T14:56:48.559Z,77.23
2019-03-08T14:59:53.897Z,76.60
2019-03-08T15:02:58.845Z,76.70
2019-03-08T15:06:03.488Z,76.93
2019-03-08T15:09:11.309Z,77.60
2019-03-08T15:12:16.807Z,80.77
2019-03-08T15:15:21.765Z,83.87
2019-03-08T15:18:29.601Z,81.43
2019-03-08T15:21:36.685Z,78.77
2019-03-08T15:24:39.725Z,79.13
2019-03-08T15:27:44.540Z,79.00
2019-03-08T15:30:49.288Z,75.50
2019-03-08T15:33:54.107Z,76.93
2019-03-08T15:36:59.032Z,74.10
2019-03-08T15:40:04.993Z,75.70
2019-03-08T15:43:13.468Z,73.20
2019-03-08T15:46:18.710Z,72.33
2019-03-08T15:49:22.587Z,72.13
2019-03-08T15:52:27.477Z,72.53
2019-03-08T15:55:32.339Z,75.40
2019-03-08T15:58:37.269Z,70.43
2019-03-08T16:01:42.199Z,71.63
2019-03-08T16:04:50.118Z,69.53
2019-03-08T16:07:53.283Z,70.33
2019-03-08T16:10:58.130Z,71.90
2019-03-08T16:14:08.842Z,69.80
2019-03-08T16:17:09.413Z,68.63
2019-03-08T16:20:15.061Z,67.70
2019-03-08T16:23:21.805Z,65.83
2019-03-08T16:26:26.458Z,66.33
2019-03-08T16:29:31.198Z,67.67
2019-03-08T16:32:54.027Z,66.90
2019-03-08T16:36:08.066Z,68.07
2019-03-08T16:39:40.552Z,65.80
2019-03-08T16:43:07.653Z,65.17
2019-03-08T16:46:25.051Z,65.10
2019-03-08T16:49:39.877Z,65.07
2019-03-08T16:52:51.758Z,65.87
2019-03-08T16:56:12.007Z,66.20
2019-03-08T16:59:34.106Z,62.87
2019-03-08T17:03:04.073Z,62.50
2019-03-08T17:06:30.832Z,61.30
2019-03-08T17:09:46.392Z,62.13
2019-03-08T17:13:07.531Z,63.27
2019-03-08T17:16:38.858Z,61.70
2019-03-08T17:20:02.421Z,60.53
2019-03-08T17:23:19.521Z,59.60
2019-03-08T17:26:42.340Z,58.73
2019-03-08T17:30:05.970Z,59.87
2019-03-08T17:33:41.638Z,58.77
2019-03-08T17:37:11.168Z,58.80
2019-03-08T17:40:37.806Z,56.40
2019-03-08T17:44:16.533Z,55.90
2019-03-08T17:47:37.037Z,55.03
2019-03-08T17:51:00.090Z,55.50
2019-03-08T17:54:22.341Z,56.00
2019-03-08T17:57:49.270Z,54.37
2019-03-08T18:01:17.629Z,54.27
2019-03-08T18:04:32.328Z,53.50
2019-03-08T18:08:05.270Z,54.57
2019-03-08T18:11:32.060Z,53.47
2019-03-08T18:14:53.938Z,53.30
2019-03-08T18:18:13.393Z,52.27
2019-03-08T18:21:34.054Z,50.60
2019-03-08T18:24:57.305Z,51.37
2019-03-08T18:28:27.003Z,50.77
2019-03-08T18:31:45.396Z,50.73
2019-03-08T18:35:18.523Z,49.30
2019-03-08T18:38:40.767Z,49.10
2019-03-08T18:41:53.348Z,50.40
2019-03-08T18:45:29.019Z,49.77
2019-03-08T18:48:38.957Z,49.13
2019-03-08T18:51:53.868Z,46.33
2019-03-08T18:55:15.277Z,46.63
2019-03-08T18:58:29.818Z,47.67
2019-03-08T19:02:05.542Z,48.03
2019-03-08T19:05:27.735Z,47.03
2019-03-08T19:08:51.765Z,44.53
2019-03-08T19:12:12.850Z,44.03
2019-03-08T19:15:36.447Z,45.23
2019-03-08T19:19:04.225Z,45.33
2019-03-08T19:22:33.705Z,43.70
2019-03-08T19:25:56.027Z,46.00
2019-03-08T19:29:11.489Z,44.93
2019-03-08T19:32:31.113Z,43.60
2019-03-08T19:35:55.836Z,42.40
2019-03-08T19:39:19.525Z,41.63
2019-03-08T19:42:58.485Z,41.63
2019-03-08T19:46:22.095Z,42.00
2019-03-08T19:49:48.477Z,43.03
2019-03-08T19:53:06.395Z,41.23
2019-03-08T19:56:35.860Z,43.57
2019-03-08T19:59:59.402Z,39.10
2019-03-08T20:03:22.799Z,39.93
2019-03-08T20:06:46.599Z,39.80
2019-03-08T20:10:14.735Z,38.70
2019-03-08T20:13:38.795Z,40.10
2019-03-08T20:17:02.418Z,38.67
2019-03-08T20:20:33.309Z,37.90
2019-03-08T20:23:55.482Z,37.03
2019-03-08T20:27:17.645Z,36.50
2019-03-08T20:30:40.183Z,36.50
2019-03-08T20:33:53.343Z,36.30
2019-03-08T20:37:26.115Z,36.03
2019-03-08T20:41:02.104Z,35.90
2019-03-08T20:44:12.367Z,34.97
2019-03-08T20:47:24.771Z,36.93
2019-03-08T20:50:29.702Z,34.90
2019-03-08T20:53:34.650Z,33.80
2019-03-08T20:56:39.271Z,34.17
2019-03-08T20:59:44.116Z,33.17
2019-03-08T21:02:48.933Z,34.03
2019-03-08T21:05:53.905Z,33.47
2019-03-08T21:08:58.765Z,33.23
2019-03-08T21:12:03.308Z,33.60
2019-03-08T21:15:09.892Z,32.97
2019-03-08T21:18:14.914Z,32.70
2019-03-08T21:21:19.844Z,32.00
2019-03-08T21:24:26.695Z,31.10
2019-03-08T21:27:31.379Z,31.20
2019-03-08T21:30:36.077Z,30.40
2019-03-08T21:33:40.892Z,30.47
2019-03-08T21:36:45.845Z,30.97
2019-03-08T21:39:50.790Z,30.83
2019-03-08T21:42:55.735Z,31.37
2019-03-08T21:46:00.352Z,29.10
2019-03-08T21:49:05.270Z,28.33
2019-03-08T21:52:10.112Z,29.60
2019-03-08T21:55:15.065Z,28.80
2019-03-08T21:58:19.851Z,28.30
2019-03-08T22:01:24.485Z,29.57
2019-03-08T22:04:42.817Z,28.20
2019-03-08T22:07:47.654Z,28.47
2019-03-08T22:11:10.102Z,28.27
2019-03-08T22:14:14.826Z,27.67
2019-03-08T22:17:19.663Z,27.20
2019-03-08T22:20:24.386Z,27.33
2019-03-08T22:23:29.303Z,27.70
2019-03-08T22:26:34.125Z,27.67
2019-03-08T22:29:38.956Z,27.00
2019-03-08T22:32:43.803Z,26.13
2019-03-08T22:35:48.612Z,24.67
2019-03-08T22:38:53.346Z,26.50
2019-03-08T22:41:58.161Z,24.60
2019-03-08T22:45:02.910Z,24.83
2019-03-08T22:48:07.733Z,25.13
2019-03-08T22:51:12.694Z,24.73
2019-03-08T22:54:17.605Z,25.00
2019-03-08T22:57:22.501Z,24.63
2019-03-08T23:00:36.937Z,23.13
2019-03-08T23:03:43.033Z,22.67
2019-03-08T23:06:47.909Z,23.30
2019-03-08T23:09:52.705Z,23.47
2019-03-08T23:12:57.432Z,23.50
2019-03-08T23:16:02.165Z,21.37
2019-03-08T23:19:06.577Z,23.50
2019-03-08T23:22:11.396Z,22.40
2019-03-08T23:25:16.253Z,22.40
2019-03-08T23:28:43.218Z,20.50
2019-03-08T23:32:07.506Z,20.40
2019-03-08T23:35:12.297Z,20.63
2019-03-08T23:38:16.906Z,19.90
2019-03-08T23:41:21.750Z,21.10
2019-03-08T23:44:26.575Z,20.00
2019-03-08T23:47:31.412Z,20.20
2019-03-08T23:50:36.065Z,19.80
2019-03-08T23:53:40.772Z,19.90
2019-03-08T23:56:45.742Z,18.33
2019-03-08T23:59:50.621Z,19.67
